This is the latest recevied weather packets stored in our database for station/object N8QQQ. If no packets are shown the sender has not sent any weather packets the latest 1 day(s).
| Time | Temp. | Humidity | Pressure | Rain* | Wind** | Luminosity | Snow |
|---|---|---|---|---|---|---|---|
| 1836274663 | 12.22° C | 97% | 1022.1 hPa | 0 mm | 0 m/s | 0 W/m² | - |
| 1836274516 | 12.22° C | 98% | 1022.1 hPa | 0 mm | 0 m/s | 0 W/m² | - |
| 1836274361 | 12.78° C | 97% | 1022.3 hPa | 0 mm | 0 m/s | 0 W/m² | - |
| 1836274214 | 12.22° C | 98% | 1022.1 hPa | 0 mm | 0 m/s | 0 W/m² | - |
| 1836274059 | 12.78° C | 97% | 1022.3 hPa | 0 mm | 0 m/s | 0 W/m² | - |
| 1778053948 | -2.78° C | 90% | 1010.2 hPa | 0 mm | 0 m/s | 0 W/m² | - |
| 1778053645 | -2.78° C | 90% | 1010.2 hPa | 0 mm | 0 m/s | 0 W/m² | - |
| 1778053342 | -3.33° C | 91% | 1010.2 hPa | 0 mm | 0 m/s | 0 W/m² | - |
| 1778053040 | -3.33° C | 91% | 1010.2 hPa | 0 mm | 0 m/s | 0 W/m² | - |
| 1778052737 | -3.33° C | 90% | 1010.2 hPa | 0 mm | 0 m/s | 0 W/m² | - |
| 1778052434 | -3.33° C | 90% | 1010 hPa | 0 mm | 0 m/s | 0 W/m² | - |
| 1778052132 | -3.33° C | 90% | 1009.9 hPa | 0 mm | 0 m/s | 0 W/m² | - |
| 1778051829 | -3.33° C | 91% | 1009.9 hPa | 0 mm | 0 m/s | 0 W/m² | - |
| 1778051527 | -3.89° C | 91% | 1010 hPa | 0 mm | 0 m/s | 0 W/m² | - |
| 1778051223 | -3.89° C | 91% | 1009.8 hPa | 0 mm | 0 m/s | 0 W/m² | - |
| 1778050921 | -3.89° C | 92% | 1009.8 hPa | 0 mm | 0 m/s | 0 W/m² | - |
| 1778050618 | -3.89° C | 92% | 1009.9 hPa | 0 mm | 0 m/s | 0 W/m² | - |
| 1778050315 | -4.44° C | 92% | 1009.9 hPa | 0 mm | 0 m/s | 0 W/m² | - |
| 1778050012 | -4.44° C | 92% | 1009.9 hPa | 0 mm | 0 m/s | 0 W/m² | - |
| 1778049707 | -4.44° C | 92% | 1009.9 hPa | 0 mm | 0 m/s | 0 W/m² | - |
| 1778049405 | -4.44° C | 93% | 1009.9 hPa | 0 mm | 0 m/s | 0 W/m² | - |
| 1778049102 | -5° C | 93% | 1010.2 hPa | 0 mm | 0 m/s | 0 W/m² | - |
| 1778048801 | -5° C | 92% | 1010.2 hPa | 0 mm | 0 m/s | 0 W/m² | - |
| 1778048497 | -5° C | 92% | 1010.1 hPa | 0 mm | 0 m/s | 0 W/m² | - |
| 1778048193 | -5° C | 92% | 1010 hPa | 0 mm | 0 m/s | 0 W/m² | - |
* Rain latest hour (hover to see other rain measurements)
** Current wind speed in m/s (hover to see current wind gust speed)